sensor_id;sensor_type;location;lat;lon;timestamp;temperature;humidity
31653;DHT22;18261;53.648;9.910;2024-01-15T00:01:08;2.80;99.90
31653;DHT22;18261;53.648;9.910;2024-01-15T00:03:33;2.80;99.90
31653;DHT22;18261;53.648;9.910;2024-01-15T00:05:59;2.80;99.90
31653;DHT22;18261;53.648;9.910;2024-01-15T00:08:24;2.80;99.90
31653;DHT22;18261;53.648;9.910;2024-01-15T00:10:50;2.80;99.90
31653;DHT22;18261;53.648;9.910;2024-01-15T00:13:15;2.80;99.90
31653;DHT22;18261;53.648;9.910;2024-01-15T00:15:41;2.80;99.90
31653;DHT22;18261;53.648;9.910;2024-01-15T00:18:07;2.90;99.90
31653;DHT22;18261;53.648;9.910;2024-01-15T00:20:32;2.80;99.90
31653;DHT22;18261;53.648;9.910;2024-01-15T00:22:58;2.90;99.90
31653;DHT22;18261;53.648;9.910;2024-01-15T00:25:23;2.90;99.90
31653;DHT22;18261;53.648;9.910;2024-01-15T00:27:49;2.80;99.90
31653;DHT22;18261;53.648;9.910;2024-01-15T00:30:15;2.70;99.90
31653;DHT22;18261;53.648;9.910;2024-01-15T00:32:40;2.80;99.90
31653;DHT22;18261;53.648;9.910;2024-01-15T00:35:06;2.80;99.90
31653;DHT22;18261;53.648;9.910;2024-01-15T00:37:32;2.80;99.90
31653;DHT22;18261;53.648;9.910;2024-01-15T00:39:57;2.70;99.90
31653;DHT22;18261;53.648;9.910;2024-01-15T00:42:23;2.70;99.90
31653;DHT22;18261;53.648;9.910;2024-01-15T00:44:48;2.70;99.90
31653;DHT22;18261;53.648;9.910;2024-01-15T00:47:14;2.70;99.90
31653;DHT22;18261;53.648;9.910;2024-01-15T00:49:40;2.80;99.90
31653;DHT22;18261;53.648;9.910;2024-01-15T00:52:05;2.80;99.90
31653;DHT22;18261;53.648;9.910;2024-01-15T00:54:31;2.80;99.90
31653;DHT22;18261;53.648;9.910;2024-01-15T00:56:56;2.80;99.90
31653;DHT22;18261;53.648;9.910;2024-01-15T00:59:22;2.80;99.90
31653;DHT22;18261;53.648;9.910;2024-01-15T01:01:47;2.80;99.90
31653;DHT22;18261;53.648;9.910;2024-01-15T01:04:13;2.80;99.90
31653;DHT22;18261;53.648;9.910;2024-01-15T01:06:39;2.80;99.90
31653;DHT22;18261;53.648;9.910;2024-01-15T01:09:05;2.70;99.90
31653;DHT22;18261;53.648;9.910;2024-01-15T01:11:30;2.80;99.90
31653;DHT22;18261;53.648;9.910;2024-01-15T01:13:56;2.70;99.90
31653;DHT22;18261;53.648;9.910;2024-01-15T01:16:22;2.70;99.90
31653;DHT22;18261;53.648;9.910;2024-01-15T01:18:48;2.80;99.90
31653;DHT22;18261;53.648;9.910;2024-01-15T01:21:13;2.80;99.90
31653;DHT22;18261;53.648;9.910;2024-01-15T01:23:39;2.80;99.90
31653;DHT22;18261;53.648;9.910;2024-01-15T01:26:04;2.90;99.90
31653;DHT22;18261;53.648;9.910;2024-01-15T01:28:30;2.90;99.90
31653;DHT22;18261;53.648;9.910;2024-01-15T01:30:56;2.90;99.90
31653;DHT22;18261;53.648;9.910;2024-01-15T01:33:21;2.90;99.90
31653;DHT22;18261;53.648;9.910;2024-01-15T01:35:47;2.90;99.90
31653;DHT22;18261;53.648;9.910;2024-01-15T01:38:13;2.90;99.90
31653;DHT22;18261;53.648;9.910;2024-01-15T01:40:38;3.00;99.90
31653;DHT22;18261;53.648;9.910;2024-01-15T01:43:09;3.10;99.90
31653;DHT22;18261;53.648;9.910;2024-01-15T01:45:34;3.20;99.90
31653;DHT22;18261;53.648;9.910;2024-01-15T01:48:01;3.10;99.90
31653;DHT22;18261;53.648;9.910;2024-01-15T01:50:30;3.20;99.90
31653;DHT22;18261;53.648;9.910;2024-01-15T01:52:57;3.20;99.90
31653;DHT22;18261;53.648;9.910;2024-01-15T01:55:24;3.10;99.90
31653;DHT22;18261;53.648;9.910;2024-01-15T01:57:51;3.20;99.90
31653;DHT22;18261;53.648;9.910;2024-01-15T02:00:17;3.20;99.90
31653;DHT22;18261;53.648;9.910;2024-01-15T02:02:43;3.20;99.90
31653;DHT22;18261;53.648;9.910;2024-01-15T02:05:08;3.20;99.90
31653;DHT22;18261;53.648;9.910;2024-01-15T02:07:34;3.20;99.90
31653;DHT22;18261;53.648;9.910;2024-01-15T02:10:01;3.10;99.90
31653;DHT22;18261;53.648;9.910;2024-01-15T02:12:26;3.10;99.90
31653;DHT22;18261;53.648;9.910;2024-01-15T02:14:52;3.10;99.90
31653;DHT22;18261;53.648;9.910;2024-01-15T02:17:18;3.00;99.90
31653;DHT22;18261;53.648;9.910;2024-01-15T02:19:43;3.10;99.90
31653;DHT22;18261;53.648;9.910;2024-01-15T02:22:09;3.00;99.90
31653;DHT22;18261;53.648;9.910;2024-01-15T02:24:34;3.00;99.90
31653;DHT22;18261;53.648;9.910;2024-01-15T02:27:00;3.00;99.90
31653;DHT22;18261;53.648;9.910;2024-01-15T02:29:26;3.00;99.90
31653;DHT22;18261;53.648;9.910;2024-01-15T02:31:51;3.00;99.90
31653;DHT22;18261;53.648;9.910;2024-01-15T02:34:17;3.00;99.90
31653;DHT22;18261;53.648;9.910;2024-01-15T02:36:42;3.00;99.90
31653;DHT22;18261;53.648;9.910;2024-01-15T02:39:08;3.10;99.90
31653;DHT22;18261;53.648;9.910;2024-01-15T02:41:34;3.00;99.90
31653;DHT22;18261;53.648;9.910;2024-01-15T02:43:59;3.00;99.90
31653;DHT22;18261;53.648;9.910;2024-01-15T02:46:25;3.00;99.90
31653;DHT22;18261;53.648;9.910;2024-01-15T02:48:50;3.10;99.90
31653;DHT22;18261;53.648;9.910;2024-01-15T02:51:16;3.10;99.90
31653;DHT22;18261;53.648;9.910;2024-01-15T02:53:41;3.00;99.90
31653;DHT22;18261;53.648;9.910;2024-01-15T02:56:07;3.10;99.90
31653;DHT22;18261;53.648;9.910;2024-01-15T02:58:33;3.10;99.90
31653;DHT22;18261;53.648;9.910;2024-01-15T03:00:59;3.10;99.90
31653;DHT22;18261;53.648;9.910;2024-01-15T03:03:24;3.10;99.90
31653;DHT22;18261;53.648;9.910;2024-01-15T03:05:50;3.20;99.90
31653;DHT22;18261;53.648;9.910;2024-01-15T03:08:15;3.20;99.90
31653;DHT22;18261;53.648;9.910;2024-01-15T03:10:41;3.20;99.90
31653;DHT22;18261;53.648;9.910;2024-01-15T03:13:07;3.20;99.90
31653;DHT22;18261;53.648;9.910;2024-01-15T03:15:32;3.20;99.90
31653;DHT22;18261;53.648;9.910;2024-01-15T03:17:58;3.20;99.90
31653;DHT22;18261;53.648;9.910;2024-01-15T03:20:24;3.30;99.90
31653;DHT22;18261;53.648;9.910;2024-01-15T03:22:49;3.20;99.90
31653;DHT22;18261;53.648;9.910;2024-01-15T03:25:15;3.20;99.90
31653;DHT22;18261;53.648;9.910;2024-01-15T03:27:41;3.20;99.90
31653;DHT22;18261;53.648;9.910;2024-01-15T03:30:07;3.20;99.90
31653;DHT22;18261;53.648;9.910;2024-01-15T03:32:32;3.20;99.90
31653;DHT22;18261;53.648;9.910;2024-01-15T03:34:58;3.20;99.90
31653;DHT22;18261;53.648;9.910;2024-01-15T03:37:25;3.10;99.90
31653;DHT22;18261;53.648;9.910;2024-01-15T03:39:50;3.20;99.90
31653;DHT22;18261;53.648;9.910;2024-01-15T03:42:16;3.10;99.90
31653;DHT22;18261;53.648;9.910;2024-01-15T03:44:41;3.10;99.90
31653;DHT22;18261;53.648;9.910;2024-01-15T03:47:07;3.10;99.90
31653;DHT22;18261;53.648;9.910;2024-01-15T03:49:33;3.10;99.90
31653;DHT22;18261;53.648;9.910;2024-01-15T03:51:58;3.10;99.90
31653;DHT22;18261;53.648;9.910;2024-01-15T03:54:24;3.10;99.90
31653;DHT22;18261;53.648;9.910;2024-01-15T03:56:49;3.10;99.90
31653;DHT22;18261;53.648;9.910;2024-01-15T03:59:15;3.20;99.90
31653;DHT22;18261;53.648;9.910;2024-01-15T04:01:41;3.20;99.90
31653;DHT22;18261;53.648;9.910;2024-01-15T04:04:06;3.10;99.90
31653;DHT22;18261;53.648;9.910;2024-01-15T04:06:32;3.20;99.90
31653;DHT22;18261;53.648;9.910;2024-01-15T04:08:58;3.20;99.90
31653;DHT22;18261;53.648;9.910;2024-01-15T04:11:24;3.20;99.90
31653;DHT22;18261;53.648;9.910;2024-01-15T04:13:50;3.20;99.90
31653;DHT22;18261;53.648;9.910;2024-01-15T04:16:15;3.30;99.90
31653;DHT22;18261;53.648;9.910;2024-01-15T04:18:41;3.30;99.90
31653;DHT22;18261;53.648;9.910;2024-01-15T04:21:07;3.30;99.90
31653;DHT22;18261;53.648;9.910;2024-01-15T04:23:33;3.30;99.90
31653;DHT22;18261;53.648;9.910;2024-01-15T04:25:58;3.30;99.90
31653;DHT22;18261;53.648;9.910;2024-01-15T04:28:24;3.30;99.90
31653;DHT22;18261;53.648;9.910;2024-01-15T04:30:50;3.40;99.90
31653;DHT22;18261;53.648;9.910;2024-01-15T04:33:15;3.40;99.90
31653;DHT22;18261;53.648;9.910;2024-01-15T04:35:41;3.30;99.90
31653;DHT22;18261;53.648;9.910;2024-01-15T04:38:07;3.30;99.90
31653;DHT22;18261;53.648;9.910;2024-01-15T04:40:33;3.40;99.90
31653;DHT22;18261;53.648;9.910;2024-01-15T04:42:58;3.40;99.90
31653;DHT22;18261;53.648;9.910;2024-01-15T04:45:24;3.40;99.90
31653;DHT22;18261;53.648;9.910;2024-01-15T04:47:54;3.50;99.90
31653;DHT22;18261;53.648;9.910;2024-01-15T04:50:20;3.60;99.90
31653;DHT22;18261;53.648;9.910;2024-01-15T04:52:45;3.60;99.90
31653;DHT22;18261;53.648;9.910;2024-01-15T04:55:11;3.60;99.90
31653;DHT22;18261;53.648;9.910;2024-01-15T04:57:37;3.50;99.90
31653;DHT22;18261;53.648;9.910;2024-01-15T05:00:02;3.60;99.90
31653;DHT22;18261;53.648;9.910;2024-01-15T05:02:28;3.70;99.90
31653;DHT22;18261;53.648;9.910;2024-01-15T05:04:54;3.70;99.90
31653;DHT22;18261;53.648;9.910;2024-01-15T05:07:19;3.70;99.90
31653;DHT22;18261;53.648;9.910;2024-01-15T05:09:45;3.60;99.90
31653;DHT22;18261;53.648;9.910;2024-01-15T05:12:10;3.80;99.90
31653;DHT22;18261;53.648;9.910;2024-01-15T05:14:37;3.80;99.90
31653;DHT22;18261;53.648;9.910;2024-01-15T05:17:02;3.80;99.90
31653;DHT22;18261;53.648;9.910;2024-01-15T05:19:28;3.80;99.90
31653;DHT22;18261;53.648;9.910;2024-01-15T05:21:53;3.80;99.90
31653;DHT22;18261;53.648;9.910;2024-01-15T05:24:19;3.90;99.90
31653;DHT22;18261;53.648;9.910;2024-01-15T05:26:45;3.90;99.90
31653;DHT22;18261;53.648;9.910;2024-01-15T05:29:10;3.90;99.90
31653;DHT22;18261;53.648;9.910;2024-01-15T05:31:36;3.90;99.90
31653;DHT22;18261;53.648;9.910;2024-01-15T05:34:01;3.90;99.90
31653;DHT22;18261;53.648;9.910;2024-01-15T05:36:27;3.90;99.90
31653;DHT22;18261;53.648;9.910;2024-01-15T05:38:53;4.00;99.90
31653;DHT22;18261;53.648;9.910;2024-01-15T05:41:18;3.90;99.90
31653;DHT22;18261;53.648;9.910;2024-01-15T05:43:44;3.90;99.90
31653;DHT22;18261;53.648;9.910;2024-01-15T05:46:09;3.80;99.90
31653;DHT22;18261;53.648;9.910;2024-01-15T05:48:35;3.90;99.90
31653;DHT22;18261;53.648;9.910;2024-01-15T05:51:01;3.90;99.90
31653;DHT22;18261;53.648;9.910;2024-01-15T05:53:27;3.90;99.90
31653;DHT22;18261;53.648;9.910;2024-01-15T05:55:53;3.90;99.90
31653;DHT22;18261;53.648;9.910;2024-01-15T05:58:19;3.90;99.90
31653;DHT22;18261;53.648;9.910;2024-01-15T06:00:45;3.80;99.90
31653;DHT22;18261;53.648;9.910;2024-01-15T06:03:11;3.90;99.90
31653;DHT22;18261;53.648;9.910;2024-01-15T06:05:37;3.90;99.90
31653;DHT22;18261;53.648;9.910;2024-01-15T06:08:02;3.80;99.90
31653;DHT22;18261;53.648;9.910;2024-01-15T06:10:28;3.90;99.90
31653;DHT22;18261;53.648;9.910;2024-01-15T06:12:54;3.90;99.90
31653;DHT22;18261;53.648;9.910;2024-01-15T06:15:19;3.90;99.90
31653;DHT22;18261;53.648;9.910;2024-01-15T06:17:45;4.00;99.90
31653;DHT22;18261;53.648;9.910;2024-01-15T06:20:11;3.90;99.90
31653;DHT22;18261;53.648;9.910;2024-01-15T06:22:37;4.00;99.90
31653;DHT22;18261;53.648;9.910;2024-01-15T06:25:06;4.10;99.90
31653;DHT22;18261;53.648;9.910;2024-01-15T06:27:32;4.00;99.90
31653;DHT22;18261;53.648;9.910;2024-01-15T06:29:57;4.00;99.90
31653;DHT22;18261;53.648;9.910;2024-01-15T06:32:23;4.10;99.90
31653;DHT22;18261;53.648;9.910;2024-01-15T06:34:48;4.10;99.90
31653;DHT22;18261;53.648;9.910;2024-01-15T06:37:14;4.10;99.90
31653;DHT22;18261;53.648;9.910;2024-01-15T06:39:39;4.10;98.90
31653;DHT22;18261;53.648;9.910;2024-01-15T06:42:05;4.10;97.50
31653;DHT22;18261;53.648;9.910;2024-01-15T06:44:31;4.10;97.40
31653;DHT22;18261;53.648;9.910;2024-01-15T06:46:56;4.10;97.40
31653;DHT22;18261;53.648;9.910;2024-01-15T06:49:25;4.10;97.50
31653;DHT22;18261;53.648;9.910;2024-01-15T06:51:51;4.20;96.40
31653;DHT22;18261;53.648;9.910;2024-01-15T06:54:17;4.20;96.40
31653;DHT22;18261;53.648;9.910;2024-01-15T06:56:43;4.20;96.80
31653;DHT22;18261;53.648;9.910;2024-01-15T06:59:08;4.10;97.30
31653;DHT22;18261;53.648;9.910;2024-01-15T07:01:34;4.20;97.80
31653;DHT22;18261;53.648;9.910;2024-01-15T07:04:00;4.10;98.80
31653;DHT22;18261;53.648;9.910;2024-01-15T07:06:25;4.10;99.30
31653;DHT22;18261;53.648;9.910;2024-01-15T07:08:51;4.20;99.00
31653;DHT22;18261;53.648;9.910;2024-01-15T07:11:16;4.10;99.90
31653;DHT22;18261;53.648;9.910;2024-01-15T07:13:42;4.10;99.90
31653;DHT22;18261;53.648;9.910;2024-01-15T07:16:07;4.10;99.90
31653;DHT22;18261;53.648;9.910;2024-01-15T07:18:33;4.10;99.90
31653;DHT22;18261;53.648;9.910;2024-01-15T07:20:59;4.10;99.90
31653;DHT22;18261;53.648;9.910;2024-01-15T07:23:26;4.10;99.90
31653;DHT22;18261;53.648;9.910;2024-01-15T07:25:52;4.20;99.90
31653;DHT22;18261;53.648;9.910;2024-01-15T07:28:18;4.10;99.90
31653;DHT22;18261;53.648;9.910;2024-01-15T07:30:44;4.10;99.90
31653;DHT22;18261;53.648;9.910;2024-01-15T07:33:10;4.10;99.90
31653;DHT22;18261;53.648;9.910;2024-01-15T07:35:36;4.10;99.70
31653;DHT22;18261;53.648;9.910;2024-01-15T07:38:01;4.00;98.30
31653;DHT22;18261;53.648;9.910;2024-01-15T07:40:28;4.00;96.50
31653;DHT22;18261;53.648;9.910;2024-01-15T07:42:53;4.00;96.10
31653;DHT22;18261;53.648;9.910;2024-01-15T07:45:19;4.00;96.40
31653;DHT22;18261;53.648;9.910;2024-01-15T07:47:44;4.00;96.30
31653;DHT22;18261;53.648;9.910;2024-01-15T07:50:10;4.00;96.70
31653;DHT22;18261;53.648;9.910;2024-01-15T07:52:36;3.90;96.20
31653;DHT22;18261;53.648;9.910;2024-01-15T07:55:01;4.00;97.10
31653;DHT22;18261;53.648;9.910;2024-01-15T07:57:29;4.00;97.60
31653;DHT22;18261;53.648;9.910;2024-01-15T07:59:55;4.00;96.80
31653;DHT22;18261;53.648;9.910;2024-01-15T08:02:20;4.00;97.70
31653;DHT22;18261;53.648;9.910;2024-01-15T08:04:47;4.00;98.40
31653;DHT22;18261;53.648;9.910;2024-01-15T08:07:13;4.10;98.40
31653;DHT22;18261;53.648;9.910;2024-01-15T08:09:38;4.00;98.70
31653;DHT22;18261;53.648;9.910;2024-01-15T08:12:04;4.10;99.50
31653;DHT22;18261;53.648;9.910;2024-01-15T08:14:31;3.90;99.90
31653;DHT22;18261;53.648;9.910;2024-01-15T08:16:57;3.90;99.90
31653;DHT22;18261;53.648;9.910;2024-01-15T08:19:22;3.90;99.90
31653;DHT22;18261;53.648;9.910;2024-01-15T08:21:48;3.90;99.90
31653;DHT22;18261;53.648;9.910;2024-01-15T08:24:15;3.90;99.90
31653;DHT22;18261;53.648;9.910;2024-01-15T08:26:40;4.00;99.90
31653;DHT22;18261;53.648;9.910;2024-01-15T08:29:06;4.00;99.90
31653;DHT22;18261;53.648;9.910;2024-01-15T08:31:31;4.00;99.90
31653;DHT22;18261;53.648;9.910;2024-01-15T08:33:57;4.10;99.90
31653;DHT22;18261;53.648;9.910;2024-01-15T08:36:23;4.10;99.90
31653;DHT22;18261;53.648;9.910;2024-01-15T08:38:49;4.10;99.90
31653;DHT22;18261;53.648;9.910;2024-01-15T08:41:15;4.10;99.90
31653;DHT22;18261;53.648;9.910;2024-01-15T08:43:41;4.10;99.90
31653;DHT22;18261;53.648;9.910;2024-01-15T08:46:06;4.10;99.90
31653;DHT22;18261;53.648;9.910;2024-01-15T08:48:32;4.10;99.90
31653;DHT22;18261;53.648;9.910;2024-01-15T08:50:58;4.00;99.90
31653;DHT22;18261;53.648;9.910;2024-01-15T08:53:23;4.00;99.90
31653;DHT22;18261;53.648;9.910;2024-01-15T08:55:49;4.00;99.90
31653;DHT22;18261;53.648;9.910;2024-01-15T08:58:15;4.00;99.90
31653;DHT22;18261;53.648;9.910;2024-01-15T09:00:41;4.00;99.90
31653;DHT22;18261;53.648;9.910;2024-01-15T09:03:06;4.00;99.90
31653;DHT22;18261;53.648;9.910;2024-01-15T09:05:34;3.90;99.90
31653;DHT22;18261;53.648;9.910;2024-01-15T09:07:59;3.80;99.90
31653;DHT22;18261;53.648;9.910;2024-01-15T09:10:25;3.70;99.90
31653;DHT22;18261;53.648;9.910;2024-01-15T09:12:50;3.70;99.90
31653;DHT22;18261;53.648;9.910;2024-01-15T09:15:16;3.80;99.90
31653;DHT22;18261;53.648;9.910;2024-01-15T09:17:42;3.70;99.90
31653;DHT22;18261;53.648;9.910;2024-01-15T09:20:08;3.70;99.90
31653;DHT22;18261;53.648;9.910;2024-01-15T09:22:35;3.70;99.90
31653;DHT22;18261;53.648;9.910;2024-01-15T09:25:01;3.60;99.90
31653;DHT22;18261;53.648;9.910;2024-01-15T09:27:26;3.60;99.90
31653;DHT22;18261;53.648;9.910;2024-01-15T09:29:52;3.60;99.90
31653;DHT22;18261;53.648;9.910;2024-01-15T09:32:18;3.50;99.90
31653;DHT22;18261;53.648;9.910;2024-01-15T09:34:45;3.50;99.90
31653;DHT22;18261;53.648;9.910;2024-01-15T09:37:12;3.40;99.90
31653;DHT22;18261;53.648;9.910;2024-01-15T09:39:37;3.40;99.90
31653;DHT22;18261;53.648;9.910;2024-01-15T09:42:03;3.40;99.90
31653;DHT22;18261;53.648;9.910;2024-01-15T09:44:30;3.30;99.90
31653;DHT22;18261;53.648;9.910;2024-01-15T09:46:56;3.30;99.90
31653;DHT22;18261;53.648;9.910;2024-01-15T09:49:22;3.30;99.90
31653;DHT22;18261;53.648;9.910;2024-01-15T09:51:48;3.30;99.90
31653;DHT22;18261;53.648;9.910;2024-01-15T09:54:15;3.20;99.90
31653;DHT22;18261;53.648;9.910;2024-01-15T09:56:45;3.30;99.90
31653;DHT22;18261;53.648;9.910;2024-01-15T09:59:16;3.20;99.90
31653;DHT22;18261;53.648;9.910;2024-01-15T10:01:44;3.30;99.90
31653;DHT22;18261;53.648;9.910;2024-01-15T10:04:13;3.30;99.90
31653;DHT22;18261;53.648;9.910;2024-01-15T10:06:40;3.30;99.90
31653;DHT22;18261;53.648;9.910;2024-01-15T10:09:07;3.20;99.90
31653;DHT22;18261;53.648;9.910;2024-01-15T10:11:33;3.30;99.90
31653;DHT22;18261;53.648;9.910;2024-01-15T10:13:59;3.30;99.90
31653;DHT22;18261;53.648;9.910;2024-01-15T10:16:25;3.30;99.90
31653;DHT22;18261;53.648;9.910;2024-01-15T10:18:51;3.30;99.90
31653;DHT22;18261;53.648;9.910;2024-01-15T10:21:17;3.30;99.90
31653;DHT22;18261;53.648;9.910;2024-01-15T10:23:43;3.30;99.90
31653;DHT22;18261;53.648;9.910;2024-01-15T10:26:09;3.40;99.90
31653;DHT22;18261;53.648;9.910;2024-01-15T10:28:37;3.40;99.90
31653;DHT22;18261;53.648;9.910;2024-01-15T10:31:03;3.50;99.90
31653;DHT22;18261;53.648;9.910;2024-01-15T10:33:28;3.40;99.90
31653;DHT22;18261;53.648;9.910;2024-01-15T10:35:55;3.50;99.90
31653;DHT22;18261;53.648;9.910;2024-01-15T10:38:22;3.50;99.90
31653;DHT22;18261;53.648;9.910;2024-01-15T10:40:54;3.40;99.90
31653;DHT22;18261;53.648;9.910;2024-01-15T10:43:21;3.50;99.90
31653;DHT22;18261;53.648;9.910;2024-01-15T10:45:48;3.50;99.90
31653;DHT22;18261;53.648;9.910;2024-01-15T10:48:14;3.50;99.90
31653;DHT22;18261;53.648;9.910;2024-01-15T10:50:41;3.50;99.90
31653;DHT22;18261;53.648;9.910;2024-01-15T10:53:08;3.50;99.90
31653;DHT22;18261;53.648;9.910;2024-01-15T10:55:35;3.50;99.90
31653;DHT22;18261;53.648;9.910;2024-01-15T10:58:03;3.50;99.90
31653;DHT22;18261;53.648;9.910;2024-01-15T11:00:33;3.60;99.90
31653;DHT22;18261;53.648;9.910;2024-01-15T11:03:01;3.50;99.90
31653;DHT22;18261;53.648;9.910;2024-01-15T11:05:27;3.40;99.90
31653;DHT22;18261;53.648;9.910;2024-01-15T11:07:58;3.50;99.90
31653;DHT22;18261;53.648;9.910;2024-01-15T11:10:38;3.40;99.90
31653;DHT22;18261;53.648;9.910;2024-01-15T11:13:20;3.40;99.90
31653;DHT22;18261;53.648;9.910;2024-01-15T11:16:06;3.40;99.90
31653;DHT22;18261;53.648;9.910;2024-01-15T11:19:20;3.40;99.90
31653;DHT22;18261;53.648;9.910;2024-01-15T11:21:21;3.40;99.90
31653;DHT22;18261;53.648;9.910;2024-01-15T11:23:59;3.50;99.90
31653;DHT22;18261;53.648;9.910;2024-01-15T11:29:01;3.60;99.90
31653;DHT22;18261;53.648;9.910;2024-01-15T11:34:16;3.80;99.90
31653;DHT22;18261;53.648;9.910;2024-01-15T11:41:59;3.80;99.90
31653;DHT22;18261;53.648;9.910;2024-01-15T11:44:26;3.80;99.90
31653;DHT22;18261;53.648;9.910;2024-01-15T11:46:59;3.90;99.90
31653;DHT22;18261;53.648;9.910;2024-01-15T11:50:01;3.90;99.90
31653;DHT22;18261;53.648;9.910;2024-01-15T11:52:35;3.90;99.90
31653;DHT22;18261;53.648;9.910;2024-01-15T11:55:22;3.90;99.90
31653;DHT22;18261;53.648;9.910;2024-01-15T11:57:54;4.00;99.90
31653;DHT22;18261;53.648;9.910;2024-01-15T12:00:21;4.00;99.90
31653;DHT22;18261;53.648;9.910;2024-01-15T12:02:47;4.00;99.90
31653;DHT22;18261;53.648;9.910;2024-01-15T12:05:15;4.10;99.90
31653;DHT22;18261;53.648;9.910;2024-01-15T12:07:46;4.20;99.90
31653;DHT22;18261;53.648;9.910;2024-01-15T12:10:15;4.30;99.90
31653;DHT22;18261;53.648;9.910;2024-01-15T12:15:26;4.30;99.90
31653;DHT22;18261;53.648;9.910;2024-01-15T12:17:55;4.30;99.90
31653;DHT22;18261;53.648;9.910;2024-01-15T12:20:23;4.30;99.90
31653;DHT22;18261;53.648;9.910;2024-01-15T12:22:49;4.20;99.90
31653;DHT22;18261;53.648;9.910;2024-01-15T12:25:15;4.20;99.90
31653;DHT22;18261;53.648;9.910;2024-01-15T12:27:41;4.10;99.90
31653;DHT22;18261;53.648;9.910;2024-01-15T12:30:07;4.10;99.90
31653;DHT22;18261;53.648;9.910;2024-01-15T12:32:33;4.00;99.90
31653;DHT22;18261;53.648;9.910;2024-01-15T12:35:00;4.00;99.90
31653;DHT22;18261;53.648;9.910;2024-01-15T12:37:27;4.00;99.90
31653;DHT22;18261;53.648;9.910;2024-01-15T12:39:52;4.00;99.90
31653;DHT22;18261;53.648;9.910;2024-01-15T12:42:21;4.10;99.90
31653;DHT22;18261;53.648;9.910;2024-01-15T12:44:47;4.00;99.90
31653;DHT22;18261;53.648;9.910;2024-01-15T12:47:13;4.00;99.90
31653;DHT22;18261;53.648;9.910;2024-01-15T12:49:39;4.00;99.90
31653;DHT22;18261;53.648;9.910;2024-01-15T12:52:08;4.00;99.90
31653;DHT22;18261;53.648;9.910;2024-01-15T12:54:34;4.10;99.90
31653;DHT22;18261;53.648;9.910;2024-01-15T12:57:00;4.10;99.90
31653;DHT22;18261;53.648;9.910;2024-01-15T12:59:25;4.20;99.90
31653;DHT22;18261;53.648;9.910;2024-01-15T13:01:51;4.20;99.90
31653;DHT22;18261;53.648;9.910;2024-01-15T13:04:23;4.30;99.90
31653;DHT22;18261;53.648;9.910;2024-01-15T13:06:50;4.20;99.90
31653;DHT22;18261;53.648;9.910;2024-01-15T13:09:19;4.30;99.90
31653;DHT22;18261;53.648;9.910;2024-01-15T13:11:45;4.30;99.90
31653;DHT22;18261;53.648;9.910;2024-01-15T13:14:11;4.30;99.90
31653;DHT22;18261;53.648;9.910;2024-01-15T13:16:36;4.40;99.90
31653;DHT22;18261;53.648;9.910;2024-01-15T13:19:02;4.40;99.90
31653;DHT22;18261;53.648;9.910;2024-01-15T13:21:30;4.40;99.90
31653;DHT22;18261;53.648;9.910;2024-01-15T13:23:55;4.50;99.90
31653;DHT22;18261;53.648;9.910;2024-01-15T13:26:21;4.30;99.90
31653;DHT22;18261;53.648;9.910;2024-01-15T13:28:47;4.10;99.90
31653;DHT22;18261;53.648;9.910;2024-01-15T13:31:13;4.00;99.90
31653;DHT22;18261;53.648;9.910;2024-01-15T13:33:38;3.90;99.90
31653;DHT22;18261;53.648;9.910;2024-01-15T13:36:05;4.00;99.90
31653;DHT22;18261;53.648;9.910;2024-01-15T13:38:34;4.10;99.90
31653;DHT22;18261;53.648;9.910;2024-01-15T13:41:03;3.90;99.90
31653;DHT22;18261;53.648;9.910;2024-01-15T13:43:28;3.90;99.90
31653;DHT22;18261;53.648;9.910;2024-01-15T13:45:54;4.00;99.90
31653;DHT22;18261;53.648;9.910;2024-01-15T13:48:20;4.00;99.90
31653;DHT22;18261;53.648;9.910;2024-01-15T13:50:46;4.20;99.90
31653;DHT22;18261;53.648;9.910;2024-01-15T13:53:11;4.00;99.90
31653;DHT22;18261;53.648;9.910;2024-01-15T13:55:37;4.00;99.90
31653;DHT22;18261;53.648;9.910;2024-01-15T13:58:03;4.00;99.90
31653;DHT22;18261;53.648;9.910;2024-01-15T14:00:32;4.10;99.90
31653;DHT22;18261;53.648;9.910;2024-01-15T14:02:57;4.10;99.90
31653;DHT22;18261;53.648;9.910;2024-01-15T14:05:23;4.10;99.90
31653;DHT22;18261;53.648;9.910;2024-01-15T14:07:49;4.20;99.90
31653;DHT22;18261;53.648;9.910;2024-01-15T14:10:15;4.20;99.90
31653;DHT22;18261;53.648;9.910;2024-01-15T14:12:40;4.30;99.90
31653;DHT22;18261;53.648;9.910;2024-01-15T14:15:07;4.40;99.90
31653;DHT22;18261;53.648;9.910;2024-01-15T14:17:33;4.30;99.90
31653;DHT22;18261;53.648;9.910;2024-01-15T14:19:59;4.30;99.90
31653;DHT22;18261;53.648;9.910;2024-01-15T14:22:24;4.30;99.90
31653;DHT22;18261;53.648;9.910;2024-01-15T14:24:50;4.10;99.90
31653;DHT22;18261;53.648;9.910;2024-01-15T14:27:16;4.00;99.90
31653;DHT22;18261;53.648;9.910;2024-01-15T14:29:42;3.90;99.90
31653;DHT22;18261;53.648;9.910;2024-01-15T14:32:08;3.90;99.90
31653;DHT22;18261;53.648;9.910;2024-01-15T14:34:34;3.90;99.90
31653;DHT22;18261;53.648;9.910;2024-01-15T14:37:02;3.80;99.90
31653;DHT22;18261;53.648;9.910;2024-01-15T14:39:28;3.80;99.90
31653;DHT22;18261;53.648;9.910;2024-01-15T14:41:53;3.90;99.90
31653;DHT22;18261;53.648;9.910;2024-01-15T14:44:19;3.90;99.90
31653;DHT22;18261;53.648;9.910;2024-01-15T14:46:45;4.00;99.90
31653;DHT22;18261;53.648;9.910;2024-01-15T14:49:11;3.80;99.90
31653;DHT22;18261;53.648;9.910;2024-01-15T14:51:36;3.80;99.90
31653;DHT22;18261;53.648;9.910;2024-01-15T14:54:02;3.80;99.90
31653;DHT22;18261;53.648;9.910;2024-01-15T14:56:28;3.80;99.90
31653;DHT22;18261;53.648;9.910;2024-01-15T14:58:54;3.70;99.90
31653;DHT22;18261;53.648;9.910;2024-01-15T15:01:20;3.60;99.90
31653;DHT22;18261;53.648;9.910;2024-01-15T15:03:45;3.60;99.90
31653;DHT22;18261;53.648;9.910;2024-01-15T15:06:11;3.60;99.90
31653;DHT22;18261;53.648;9.910;2024-01-15T15:08:37;3.60;99.90
31653;DHT22;18261;53.648;9.910;2024-01-15T15:11:04;3.50;99.90
31653;DHT22;18261;53.648;9.910;2024-01-15T15:15:56;3.40;99.90
31653;DHT22;18261;53.648;9.910;2024-01-15T15:18:21;3.30;99.90
31653;DHT22;18261;53.648;9.910;2024-01-15T15:23:15;3.20;99.90
31653;DHT22;18261;53.648;9.910;2024-01-15T15:25:41;3.20;99.90
31653;DHT22;18261;53.648;9.910;2024-01-15T15:28:08;3.10;99.90
31653;DHT22;18261;53.648;9.910;2024-01-15T15:30:35;3.10;99.90
31653;DHT22;18261;53.648;9.910;2024-01-15T15:35:26;3.10;99.90
31653;DHT22;18261;53.648;9.910;2024-01-15T15:37:52;3.10;99.90
31653;DHT22;18261;53.648;9.910;2024-01-15T15:40:17;3.00;99.90
31653;DHT22;18261;53.648;9.910;2024-01-15T15:42:43;2.90;99.90
31653;DHT22;18261;53.648;9.910;2024-01-15T15:45:09;2.90;99.90
31653;DHT22;18261;53.648;9.910;2024-01-15T15:47:37;2.80;99.90
31653;DHT22;18261;53.648;9.910;2024-01-15T15:50:05;2.70;99.90
31653;DHT22;18261;53.648;9.910;2024-01-15T15:52:31;2.80;99.90
31653;DHT22;18261;53.648;9.910;2024-01-15T15:54:57;2.80;99.90
31653;DHT22;18261;53.648;9.910;2024-01-15T15:57:22;2.80;99.90
31653;DHT22;18261;53.648;9.910;2024-01-15T15:59:49;2.80;99.90